Terminal Aerodrome Forecast
Issued by NWS Cleveland, OH

Home | Current Version | Previous Version | Text Only | Print | Product List | Glossary Off
Versions: 1 2 3 4 5 6 7 8 9 10 11 12 13 14 15 16 17 18 19 20 21 22 23 24 25 26 27 28 29 30 31 32 33 34 35 36 37 38

000
FTUS41 KCLE 232300
TAFCLE
TAF
KCLE 232339Z 2400/2506 22004KT P6SM FEW015 BKN150
     FM240800 23004KT P6SM BKN015 OVC025
     FM241600 25009KT P6SM SCT025 BKN035
     FM241800 25010KT 6SM -DZ BR OVC015=

USA.gov is the U.S. government's official web portal to all federal, state and local government web resources and services.